sensor_id;sensor_type;location;lat;lon;timestamp;pressure;altitude;pressure_sealevel;temperature;humidity
12213;BME280;6169;44.158;22.788;2023-01-10T00:04:37;100411.84;;;6.35;77.00
12213;BME280;6169;44.158;22.788;2023-01-10T00:09:39;100413.06;;;6.25;77.69
12213;BME280;6169;44.158;22.788;2023-01-10T00:14:43;100398.22;;;6.43;77.15
12213;BME280;6169;44.158;22.788;2023-01-10T00:19:45;100395.94;;;6.53;75.94
12213;BME280;6169;44.158;22.788;2023-01-10T00:24:48;100392.06;;;6.62;75.33
12213;BME280;6169;44.158;22.788;2023-01-10T00:29:51;100370.34;;;6.70;75.43
12213;BME280;6169;44.158;22.788;2023-01-10T00:34:54;100386.22;;;6.52;75.67
12213;BME280;6169;44.158;22.788;2023-01-10T00:39:56;100371.13;;;6.51;76.29
12213;BME280;6169;44.158;22.788;2023-01-10T00:45:00;100351.06;;;6.54;76.06
12213;BME280;6169;44.158;22.788;2023-01-10T00:50:03;100355.41;;;6.55;76.33
12213;BME280;6169;44.158;22.788;2023-01-10T00:55:07;100339.16;;;6.28;76.76
12213;BME280;6169;44.158;22.788;2023-01-10T01:00:12;100337.41;;;6.75;75.32
12213;BME280;6169;44.158;22.788;2023-01-10T01:05:14;100339.69;;;6.78;74.31
12213;BME280;6169;44.158;22.788;2023-01-10T01:10:17;100364.72;;;6.59;76.45
12213;BME280;6169;44.158;22.788;2023-01-10T01:15:30;100375.13;;;6.14;77.39
12213;BME280;6169;44.158;22.788;2023-01-10T01:20:32;100371.31;;;6.49;76.92
12213;BME280;6169;44.158;22.788;2023-01-10T01:25:35;100367.66;;;6.70;75.86
12213;BME280;6169;44.158;22.788;2023-01-10T01:30:38;100376.03;;;6.34;77.04
12213;BME280;6169;44.158;22.788;2023-01-10T01:35:41;100369.50;;;6.63;76.07
12213;BME280;6169;44.158;22.788;2023-01-10T01:40:43;100372.19;;;6.63;76.31
12213;BME280;6169;44.158;22.788;2023-01-10T01:45:47;100357.88;;;6.49;76.63
12213;BME280;6169;44.158;22.788;2023-01-10T01:50:54;100358.69;;;6.50;76.52
12213;BME280;6169;44.158;22.788;2023-01-10T01:56:00;100362.44;;;6.49;77.50
12213;BME280;6169;44.158;22.788;2023-01-10T02:01:06;100348.28;;;6.27;77.82
12213;BME280;6169;44.158;22.788;2023-01-10T02:06:09;100354.41;;;6.69;76.49
12213;BME280;6169;44.158;22.788;2023-01-10T02:11:11;100340.28;;;6.47;76.02
12213;BME280;6169;44.158;22.788;2023-01-10T02:16:15;100337.41;;;6.75;75.61
12213;BME280;6169;44.158;22.788;2023-01-10T02:21:36;100330.50;;;6.26;76.54
12213;BME280;6169;44.158;22.788;2023-01-10T02:27:13;100322.19;;;6.14;78.64
12213;BME280;6169;44.158;22.788;2023-01-10T02:32:27;100296.06;;;6.01;78.38
12213;BME280;6169;44.158;22.788;2023-01-10T02:37:42;100317.00;;;6.19;79.52
12213;BME280;6169;44.158;22.788;2023-01-10T02:42:51;100340.09;;;6.55;77.50
12213;BME280;6169;44.158;22.788;2023-01-10T02:47:57;100312.13;;;6.43;77.36
12213;BME280;6169;44.158;22.788;2023-01-10T02:53:03;100351.66;;;6.49;77.80
12213;BME280;6169;44.158;22.788;2023-01-10T02:58:16;100350.19;;;6.40;77.25
12213;BME280;6169;44.158;22.788;2023-01-10T03:03:32;100344.69;;;6.88;75.58
12213;BME280;6169;44.158;22.788;2023-01-10T03:08:44;100332.47;;;6.85;76.04
12213;BME280;6169;44.158;22.788;2023-01-10T03:13:51;100334.53;;;7.03;74.78
12213;BME280;6169;44.158;22.788;2023-01-10T03:18:58;100332.88;;;6.76;75.70
12213;BME280;6169;44.158;22.788;2023-01-10T03:24:06;100332.03;;;6.75;76.25
12213;BME280;6169;44.158;22.788;2023-01-10T03:29:12;100324.53;;;6.50;77.28
12213;BME280;6169;44.158;22.788;2023-01-10T03:34:19;100322.53;;;6.79;76.33
12213;BME280;6169;44.158;22.788;2023-01-10T03:39:29;100305.94;;;6.49;76.38
12213;BME280;6169;44.158;22.788;2023-01-10T03:44:37;100332.59;;;6.44;76.88
12213;BME280;6169;44.158;22.788;2023-01-10T03:49:49;100147.78;;;5.30;76.74
12213;BME280;6169;44.158;22.788;2023-01-10T03:54:54;100313.41;;;6.60;75.94
12213;BME280;6169;44.158;22.788;2023-01-10T03:59:58;100310.47;;;6.62;76.32
12213;BME280;6169;44.158;22.788;2023-01-10T04:05:02;100313.59;;;6.59;75.84
12213;BME280;6169;44.158;22.788;2023-01-10T04:10:06;100317.34;;;6.78;75.16
12213;BME280;6169;44.158;22.788;2023-01-10T04:15:10;100326.81;;;6.47;76.55
12213;BME280;6169;44.158;22.788;2023-01-10T04:20:14;100334.31;;;6.78;75.67
12213;BME280;6169;44.158;22.788;2023-01-10T04:25:16;100332.22;;;6.67;76.31
12213;BME280;6169;44.158;22.788;2023-01-10T04:30:19;100312.72;;;6.38;76.15
12213;BME280;6169;44.158;22.788;2023-01-10T04:35:23;100296.84;;;6.57;76.59
12213;BME280;6169;44.158;22.788;2023-01-10T04:40:25;100287.28;;;6.47;76.66
12213;BME280;6169;44.158;22.788;2023-01-10T04:45:27;100260.78;;;6.31;77.19
12213;BME280;6169;44.158;22.788;2023-01-10T04:50:31;100215.88;;;6.12;76.77
12213;BME280;6169;44.158;22.788;2023-01-10T04:55:34;100273.00;;;6.40;76.69
12213;BME280;6169;44.158;22.788;2023-01-10T05:00:36;100264.75;;;6.48;76.98
12213;BME280;6169;44.158;22.788;2023-01-10T05:05:40;100276.13;;;6.37;77.24
12213;BME280;6169;44.158;22.788;2023-01-10T05:10:42;100308.63;;;6.42;77.92
12213;BME280;6169;44.158;22.788;2023-01-10T05:15:44;100319.97;;;6.38;78.20
12213;BME280;6169;44.158;22.788;2023-01-10T05:20:48;100330.91;;;6.36;78.80
12213;BME280;6169;44.158;22.788;2023-01-10T05:25:50;100345.47;;;5.94;79.92
12213;BME280;6169;44.158;22.788;2023-01-10T05:30:52;100373.94;;;6.23;78.80
12213;BME280;6169;44.158;22.788;2023-01-10T05:35:56;100334.25;;;6.32;78.31
12213;BME280;6169;44.158;22.788;2023-01-10T05:40:58;100297.25;;;6.60;77.02
12213;BME280;6169;44.158;22.788;2023-01-10T05:46:01;100267.44;;;6.68;76.83
12213;BME280;6169;44.158;22.788;2023-01-10T05:51:05;100284.81;;;6.72;76.60
12213;BME280;6169;44.158;22.788;2023-01-10T05:56:08;100299.94;;;6.60;76.45
12213;BME280;6169;44.158;22.788;2023-01-10T06:01:10;100298.69;;;6.49;77.66
12213;BME280;6169;44.158;22.788;2023-01-10T06:06:14;100293.72;;;6.46;78.10
12213;BME280;6169;44.158;22.788;2023-01-10T06:11:16;100291.41;;;6.30;78.56
12213;BME280;6169;44.158;22.788;2023-01-10T06:16:18;100322.94;;;6.76;77.62
12213;BME280;6169;44.158;22.788;2023-01-10T06:21:22;100349.22;;;6.74;76.75
12213;BME280;6169;44.158;22.788;2023-01-10T06:26:24;100355.44;;;6.68;77.18
12213;BME280;6169;44.158;22.788;2023-01-10T06:31:27;100284.56;;;6.21;77.48
12213;BME280;6169;44.158;22.788;2023-01-10T06:36:31;100361.63;;;6.62;77.61
12213;BME280;6169;44.158;22.788;2023-01-10T06:41:33;100363.25;;;6.56;78.21
12213;BME280;6169;44.158;22.788;2023-01-10T06:46:36;100351.69;;;6.62;77.87
12213;BME280;6169;44.158;22.788;2023-01-10T06:51:39;100351.72;;;6.95;76.18
12213;BME280;6169;44.158;22.788;2023-01-10T06:56:42;100357.09;;;6.69;76.67
12213;BME280;6169;44.158;22.788;2023-01-10T07:01:44;100382.75;;;6.71;78.01
12213;BME280;6169;44.158;22.788;2023-01-10T07:06:47;100399.56;;;6.73;77.54
12213;BME280;6169;44.158;22.788;2023-01-10T07:11:50;100383.22;;;6.95;76.49
12213;BME280;6169;44.158;22.788;2023-01-10T07:16:52;100380.25;;;6.63;77.79
12213;BME280;6169;44.158;22.788;2023-01-10T07:21:56;100373.69;;;6.99;76.78
12213;BME280;6169;44.158;22.788;2023-01-10T07:26:58;100378.25;;;6.99;77.48
12213;BME280;6169;44.158;22.788;2023-01-10T07:32:00;100390.25;;;6.89;78.36
12213;BME280;6169;44.158;22.788;2023-01-10T07:37:04;100368.53;;;7.04;78.13
12213;BME280;6169;44.158;22.788;2023-01-10T07:42:07;100377.44;;;7.05;77.63
12213;BME280;6169;44.158;22.788;2023-01-10T07:47:09;100390.69;;;7.26;77.05
12213;BME280;6169;44.158;22.788;2023-01-10T07:52:13;100422.59;;;7.23;78.13
12213;BME280;6169;44.158;22.788;2023-01-10T07:57:15;100420.09;;;7.08;78.11
12213;BME280;6169;44.158;22.788;2023-01-10T08:02:17;100403.72;;;6.96;78.40
12213;BME280;6169;44.158;22.788;2023-01-10T08:07:21;100411.78;;;6.89;78.78
12213;BME280;6169;44.158;22.788;2023-01-10T08:12:23;100406.41;;;6.89;78.83
12213;BME280;6169;44.158;22.788;2023-01-10T08:17:25;100402.88;;;6.89;79.49
12213;BME280;6169;44.158;22.788;2023-01-10T08:22:29;100409.31;;;7.01;79.78
12213;BME280;6169;44.158;22.788;2023-01-10T08:27:31;100407.28;;;7.10;79.05
12213;BME280;6169;44.158;22.788;2023-01-10T08:32:34;100396.91;;;6.93;79.80
12213;BME280;6169;44.158;22.788;2023-01-10T08:37:37;100380.72;;;7.07;79.21
12213;BME280;6169;44.158;22.788;2023-01-10T08:42:40;100382.38;;;6.94;80.54
12213;BME280;6169;44.158;22.788;2023-01-10T08:47:42;100380.25;;;6.57;82.35
12213;BME280;6169;44.158;22.788;2023-01-10T08:52:46;100384.41;;;6.66;81.98
12213;BME280;6169;44.158;22.788;2023-01-10T08:57:48;100377.41;;;6.98;81.43
12213;BME280;6169;44.158;22.788;2023-01-10T09:02:50;100385.72;;;7.03;80.77
12213;BME280;6169;44.158;22.788;2023-01-10T09:07:57;100340.56;;;6.85;80.44
12213;BME280;6169;44.158;22.788;2023-01-10T09:13:00;100399.19;;;7.23;80.59
12213;BME280;6169;44.158;22.788;2023-01-10T09:18:06;100396.06;;;7.20;80.77
12213;BME280;6169;44.158;22.788;2023-01-10T09:23:11;100396.06;;;7.39;80.26
12213;BME280;6169;44.158;22.788;2023-01-10T09:28:17;100398.59;;;7.21;80.73
12213;BME280;6169;44.158;22.788;2023-01-10T09:33:20;100384.47;;;6.99;81.89
12213;BME280;6169;44.158;22.788;2023-01-10T09:38:24;100386.16;;;7.27;81.08
12213;BME280;6169;44.158;22.788;2023-01-10T09:43:35;100378.44;;;7.24;82.04
12213;BME280;6169;44.158;22.788;2023-01-10T09:48:42;100374.34;;;7.21;81.26
12213;BME280;6169;44.158;22.788;2023-01-10T09:53:50;100367.91;;;7.22;81.42
12213;BME280;6169;44.158;22.788;2023-01-10T09:58:58;100361.06;;;7.39;81.00
12213;BME280;6169;44.158;22.788;2023-01-10T10:04:14;100357.34;;;7.27;81.68
12213;BME280;6169;44.158;22.788;2023-01-10T10:09:25;100356.06;;;7.50;81.41
12213;BME280;6169;44.158;22.788;2023-01-10T10:14:39;100344.84;;;7.46;81.14
12213;BME280;6169;44.158;22.788;2023-01-10T10:19:56;100335.34;;;7.64;80.93
12213;BME280;6169;44.158;22.788;2023-01-10T10:25:09;100327.63;;;7.74;80.16
12213;BME280;6169;44.158;22.788;2023-01-10T10:30:28;100319.97;;;7.77;79.46
12213;BME280;6169;44.158;22.788;2023-01-10T10:35:35;100319.38;;;7.62;81.39
12213;BME280;6169;44.158;22.788;2023-01-10T10:40:43;100297.38;;;7.72;81.44
12213;BME280;6169;44.158;22.788;2023-01-10T10:45:51;100299.22;;;7.71;81.70
12213;BME280;6169;44.158;22.788;2023-01-10T10:51:01;100295.31;;;7.67;81.23
12213;BME280;6169;44.158;22.788;2023-01-10T10:56:11;100281.78;;;7.74;81.22
12213;BME280;6169;44.158;22.788;2023-01-10T11:01:15;100282.16;;;7.91;81.98
12213;BME280;6169;44.158;22.788;2023-01-10T11:06:20;100274.13;;;7.77;82.42
12213;BME280;6169;44.158;22.788;2023-01-10T11:11:28;100254.50;;;8.02;81.87
12213;BME280;6169;44.158;22.788;2023-01-10T11:16:32;100245.84;;;7.93;82.78
12213;BME280;6169;44.158;22.788;2023-01-10T11:21:37;100248.88;;;7.65;83.81
12213;BME280;6169;44.158;22.788;2023-01-10T11:26:42;100240.44;;;7.93;82.82
12213;BME280;6169;44.158;22.788;2023-01-10T11:31:45;100249.72;;;8.04;82.63
12213;BME280;6169;44.158;22.788;2023-01-10T11:36:56;100251.50;;;8.17;82.13
12213;BME280;6169;44.158;22.788;2023-01-10T11:42:25;100250.88;;;7.76;83.19
12213;BME280;6169;44.158;22.788;2023-01-10T11:47:29;100255.00;;;7.85;83.76
12213;BME280;6169;44.158;22.788;2023-01-10T11:52:31;100256.56;;;7.61;84.97
12213;BME280;6169;44.158;22.788;2023-01-10T11:57:36;100274.38;;;7.56;85.47
12213;BME280;6169;44.158;22.788;2023-01-10T12:02:40;100266.88;;;7.71;84.91
12213;BME280;6169;44.158;22.788;2023-01-10T12:07:56;100273.72;;;7.74;85.80
12213;BME280;6169;44.158;22.788;2023-01-10T12:13:13;100271.63;;;7.76;86.19
12213;BME280;6169;44.158;22.788;2023-01-10T12:18:16;100281.22;;;7.72;86.77
12213;BME280;6169;44.158;22.788;2023-01-10T12:23:21;100271.59;;;7.82;86.18
12213;BME280;6169;44.158;22.788;2023-01-10T12:28:27;100108.16;;;6.98;85.62
12213;BME280;6169;44.158;22.788;2023-01-10T12:33:33;100270.22;;;8.12;85.88
12213;BME280;6169;44.158;22.788;2023-01-10T12:38:40;100266.59;;;7.93;86.52
12213;BME280;6169;44.158;22.788;2023-01-10T12:44:06;100278.91;;;8.20;85.98
12213;BME280;6169;44.158;22.788;2023-01-10T12:49:18;100276.94;;;8.34;84.88
12213;BME280;6169;44.158;22.788;2023-01-10T12:54:23;100279.97;;;8.51;83.93
12213;BME280;6169;44.158;22.788;2023-01-10T12:59:31;100285.50;;;8.24;85.80
12213;BME280;6169;44.158;22.788;2023-01-10T13:04:37;100286.69;;;8.35;85.36
12213;BME280;6169;44.158;22.788;2023-01-10T13:09:41;100287.94;;;8.33;86.00
12213;BME280;6169;44.158;22.788;2023-01-10T13:14:48;100288.00;;;8.26;87.00
12213;BME280;6169;44.158;22.788;2023-01-10T13:20:30;100290.84;;;8.38;86.56
12213;BME280;6169;44.158;22.788;2023-01-10T13:25:36;100296.63;;;8.41;86.34
12213;BME280;6169;44.158;22.788;2023-01-10T13:30:40;100290.44;;;8.34;87.58
12213;BME280;6169;44.158;22.788;2023-01-10T13:35:43;100279.34;;;8.17;88.05
12213;BME280;6169;44.158;22.788;2023-01-10T13:41:00;100284.28;;;8.20;89.05
12213;BME280;6169;44.158;22.788;2023-01-10T13:46:37;100289.31;;;8.10;90.75
12213;BME280;6169;44.158;22.788;2023-01-10T13:57:47;100285.06;;;8.27;90.71
12213;BME280;6169;44.158;22.788;2023-01-10T14:02:51;100285.47;;;8.63;88.68
12213;BME280;6169;44.158;22.788;2023-01-10T14:07:55;100282.47;;;8.46;89.13
12213;BME280;6169;44.158;22.788;2023-01-10T14:12:59;100284.91;;;8.54;88.58
12213;BME280;6169;44.158;22.788;2023-01-10T14:18:19;100289.25;;;8.55;88.12
12213;BME280;6169;44.158;22.788;2023-01-10T14:23:27;100291.06;;;8.68;87.20
12213;BME280;6169;44.158;22.788;2023-01-10T14:28:33;100286.75;;;8.28;90.56
12213;BME280;6169;44.158;22.788;2023-01-10T14:33:41;100278.81;;;8.65;87.84
12213;BME280;6169;44.158;22.788;2023-01-10T14:38:44;100288.63;;;8.53;89.36
12213;BME280;6169;44.158;22.788;2023-01-10T14:43:53;100278.47;;;8.55;87.54
12213;BME280;6169;44.158;22.788;2023-01-10T14:48:57;100275.28;;;8.65;88.04
12213;BME280;6169;44.158;22.788;2023-01-10T14:54:02;100279.47;;;8.61;88.00
12213;BME280;6169;44.158;22.788;2023-01-10T14:59:21;100281.25;;;8.73;87.25
12213;BME280;6169;44.158;22.788;2023-01-10T15:04:28;100285.31;;;8.83;86.16
12213;BME280;6169;44.158;22.788;2023-01-10T15:09:32;100276.66;;;8.99;86.26
12213;BME280;6169;44.158;22.788;2023-01-10T15:14:36;100287.47;;;8.74;86.26
12213;BME280;6169;44.158;22.788;2023-01-10T15:19:40;100272.16;;;8.36;87.98
12213;BME280;6169;44.158;22.788;2023-01-10T15:24:43;100289.72;;;8.14;89.71
12213;BME280;6169;44.158;22.788;2023-01-10T15:29:45;100293.41;;;8.19;90.34
12213;BME280;6169;44.158;22.788;2023-01-10T15:34:50;100288.34;;;8.36;88.58
12213;BME280;6169;44.158;22.788;2023-01-10T15:39:54;100287.19;;;8.25;86.78
12213;BME280;6169;44.158;22.788;2023-01-10T15:45:16;100297.53;;;8.28;86.15
12213;BME280;6169;44.158;22.788;2023-01-10T15:50:23;100296.22;;;7.99;86.61
12213;BME280;6169;44.158;22.788;2023-01-10T15:55:38;100278.25;;;7.80;86.14
12213;BME280;6169;44.158;22.788;2023-01-10T16:00:43;100281.03;;;8.05;85.49
12213;BME280;6169;44.158;22.788;2023-01-10T16:05:51;100150.63;;;6.89;85.74
12213;BME280;6169;44.158;22.788;2023-01-10T16:10:57;100286.41;;;7.53;86.78
12213;BME280;6169;44.158;22.788;2023-01-10T16:16:02;100312.53;;;8.11;84.04
12213;BME280;6169;44.158;22.788;2023-01-10T16:21:06;100316.25;;;8.17;82.63
12213;BME280;6169;44.158;22.788;2023-01-10T16:26:10;100304.78;;;7.90;83.95
12213;BME280;6169;44.158;22.788;2023-01-10T16:31:14;100301.53;;;7.68;84.92
12213;BME280;6169;44.158;22.788;2023-01-10T16:36:18;100289.38;;;7.25;85.49
12213;BME280;6169;44.158;22.788;2023-01-10T16:41:21;100306.56;;;6.98;86.14
12213;BME280;6169;44.158;22.788;2023-01-10T16:46:41;100302.66;;;6.73;87.64
12213;BME280;6169;44.158;22.788;2023-01-10T16:51:45;100296.63;;;7.18;85.86
12213;BME280;6169;44.158;22.788;2023-01-10T16:56:48;100303.19;;;7.49;84.25
12213;BME280;6169;44.158;22.788;2023-01-10T17:01:53;100302.00;;;7.11;84.96
12213;BME280;6169;44.158;22.788;2023-01-10T17:06:58;100304.94;;;7.10;84.47
12213;BME280;6169;44.158;22.788;2023-01-10T17:12:03;100304.09;;;6.89;84.89
12213;BME280;6169;44.158;22.788;2023-01-10T17:17:10;100300.78;;;6.94;84.84
12213;BME280;6169;44.158;22.788;2023-01-10T17:22:14;100299.34;;;6.91;85.24
12213;BME280;6169;44.158;22.788;2023-01-10T17:27:17;100303.06;;;6.90;85.32
12213;BME280;6169;44.158;22.788;2023-01-10T17:32:19;100302.63;;;6.87;84.98
12213;BME280;6169;44.158;22.788;2023-01-10T17:37:23;100309.47;;;6.89;85.35
12213;BME280;6169;44.158;22.788;2023-01-10T17:42:25;100296.22;;;6.48;86.30
12213;BME280;6169;44.158;22.788;2023-01-10T17:47:27;100300.38;;;6.90;85.75
12213;BME280;6169;44.158;22.788;2023-01-10T17:52:31;100300.81;;;6.87;85.29
12213;BME280;6169;44.158;22.788;2023-01-10T17:57:33;100296.44;;;6.86;85.24
12213;BME280;6169;44.158;22.788;2023-01-10T18:02:37;100285.63;;;6.46;86.05
12213;BME280;6169;44.158;22.788;2023-01-10T18:07:41;100222.28;;;6.31;84.31
12213;BME280;6169;44.158;22.788;2023-01-10T18:12:43;100298.28;;;7.19;83.43
12213;BME280;6169;44.158;22.788;2023-01-10T18:17:46;100300.78;;;7.27;82.75
12213;BME280;6169;44.158;22.788;2023-01-10T18:22:49;100294.16;;;6.57;85.62
12213;BME280;6169;44.158;22.788;2023-01-10T18:28:09;100290.41;;;6.98;82.91
12213;BME280;6169;44.158;22.788;2023-01-10T18:33:11;100282.75;;;7.01;83.20
12213;BME280;6169;44.158;22.788;2023-01-10T18:38:15;100272.63;;;6.97;82.50
12213;BME280;6169;44.158;22.788;2023-01-10T18:43:18;100295.81;;;6.98;82.79
12213;BME280;6169;44.158;22.788;2023-01-10T18:48:24;100285.47;;;6.68;83.16
12213;BME280;6169;44.158;22.788;2023-01-10T18:53:28;100294.97;;;7.17;82.08
12213;BME280;6169;44.158;22.788;2023-01-10T18:58:32;100250.22;;;6.36;83.78
12213;BME280;6169;44.158;22.788;2023-01-10T19:03:35;100287.13;;;6.89;82.77
12213;BME280;6169;44.158;22.788;2023-01-10T19:08:39;100266.19;;;6.64;84.37
12213;BME280;6169;44.158;22.788;2023-01-10T19:13:43;100258.94;;;7.05;81.77
12213;BME280;6169;44.158;22.788;2023-01-10T19:18:49;100260.63;;;6.79;83.31
12213;BME280;6169;44.158;22.788;2023-01-10T19:23:55;100265.56;;;6.76;83.27
12213;BME280;6169;44.158;22.788;2023-01-10T19:29:00;100267.66;;;6.93;83.06
12213;BME280;6169;44.158;22.788;2023-01-10T19:34:04;100266.41;;;6.69;83.85
12213;BME280;6169;44.158;22.788;2023-01-10T19:39:10;100272.44;;;6.85;83.49
12213;BME280;6169;44.158;22.788;2023-01-10T19:44:14;100255.66;;;6.63;83.86
12213;BME280;6169;44.158;22.788;2023-01-10T19:49:18;100265.16;;;6.85;83.16
12213;BME280;6169;44.158;22.788;2023-01-10T19:54:23;100269.28;;;6.55;84.69
12213;BME280;6169;44.158;22.788;2023-01-10T19:59:26;100273.44;;;6.77;83.87
12213;BME280;6169;44.158;22.788;2023-01-10T20:04:30;100273.63;;;6.49;84.18
12213;BME280;6169;44.158;22.788;2023-01-10T20:09:34;100278.41;;;6.60;83.97
12213;BME280;6169;44.158;22.788;2023-01-10T20:14:36;100271.34;;;6.33;84.75
12213;BME280;6169;44.158;22.788;2023-01-10T20:19:38;100282.84;;;6.07;86.03
12213;BME280;6169;44.158;22.788;2023-01-10T20:24:43;100288.75;;;6.57;83.94
12213;BME280;6169;44.158;22.788;2023-01-10T20:29:45;100286.06;;;6.90;82.75
12213;BME280;6169;44.158;22.788;2023-01-10T20:34:47;100295.19;;;6.69;83.79
12213;BME280;6169;44.158;22.788;2023-01-10T20:39:52;100287.69;;;6.44;83.92
12213;BME280;6169;44.158;22.788;2023-01-10T20:44:54;100289.78;;;6.95;82.55
12213;BME280;6169;44.158;22.788;2023-01-10T20:49:57;100295.81;;;6.84;82.59
12213;BME280;6169;44.158;22.788;2023-01-10T20:55:00;100300.38;;;6.90;82.99
12213;BME280;6169;44.158;22.788;2023-01-10T21:00:03;100301.59;;;7.01;81.36
12213;BME280;6169;44.158;22.788;2023-01-10T21:05:06;100301.19;;;6.58;84.16
12213;BME280;6169;44.158;22.788;2023-01-10T21:10:11;100311.13;;;6.77;83.27
12213;BME280;6169;44.158;22.788;2023-01-10T21:15:13;100304.09;;;6.96;82.56
12213;BME280;6169;44.158;22.788;2023-01-10T21:20:16;100289.59;;;6.64;83.80
12213;BME280;6169;44.158;22.788;2023-01-10T21:25:20;100309.69;;;7.21;81.89
12213;BME280;6169;44.158;22.788;2023-01-10T21:30:23;100310.28;;;7.36;81.24
12213;BME280;6169;44.158;22.788;2023-01-10T21:35:25;100306.13;;;6.67;83.29
12213;BME280;6169;44.158;22.788;2023-01-10T21:40:29;100305.75;;;6.84;82.68
12213;BME280;6169;44.158;22.788;2023-01-10T21:45:33;100301.41;;;6.76;82.46
12213;BME280;6169;44.158;22.788;2023-01-10T21:50:35;100308.25;;;6.99;80.81
12213;BME280;6169;44.158;22.788;2023-01-10T21:55:42;100323.75;;;6.90;81.95
12213;BME280;6169;44.158;22.788;2023-01-10T22:00:44;100310.09;;;6.91;82.09
12213;BME280;6169;44.158;22.788;2023-01-10T22:05:46;100317.16;;;6.99;81.52
12213;BME280;6169;44.158;22.788;2023-01-10T22:10:50;100311.13;;;6.97;81.37
12213;BME280;6169;44.158;22.788;2023-01-10T22:15:56;100326.88;;;7.20;79.89
12213;BME280;6169;44.158;22.788;2023-01-10T22:20:59;100333.50;;;7.11;79.98
12213;BME280;6169;44.158;22.788;2023-01-10T22:26:04;100336.22;;;7.24;80.30
12213;BME280;6169;44.158;22.788;2023-01-10T22:31:06;100331.00;;;7.49;79.37
12213;BME280;6169;44.158;22.788;2023-01-10T22:36:12;100331.03;;;7.03;81.01
12213;BME280;6169;44.158;22.788;2023-01-10T22:41:18;100323.38;;;7.00;81.52
12213;BME280;6169;44.158;22.788;2023-01-10T22:46:25;100331.44;;;7.13;80.84
12213;BME280;6169;44.158;22.788;2023-01-10T22:51:27;100329.78;;;7.25;79.39
12213;BME280;6169;44.158;22.788;2023-01-10T22:56:36;100321.50;;;7.13;80.33
12213;BME280;6169;44.158;22.788;2023-01-10T23:01:38;100340.75;;;7.30;79.30
12213;BME280;6169;44.158;22.788;2023-01-10T23:06:41;100343.03;;;7.13;80.10
12213;BME280;6169;44.158;22.788;2023-01-10T23:11:45;100343.88;;;6.87;80.61
12213;BME280;6169;44.158;22.788;2023-01-10T23:16:47;100334.13;;;7.13;79.90
12213;BME280;6169;44.158;22.788;2023-01-10T23:21:49;100329.97;;;6.84;80.51
12213;BME280;6169;44.158;22.788;2023-01-10T23:26:53;100341.81;;;6.96;80.00
12213;BME280;6169;44.158;22.788;2023-01-10T23:31:55;100337.00;;;6.78;80.01
12213;BME280;6169;44.158;22.788;2023-01-10T23:36:58;100345.91;;;6.79;79.99
12213;BME280;6169;44.158;22.788;2023-01-10T23:42:01;100370.53;;;6.69;79.27
12213;BME280;6169;44.158;22.788;2023-01-10T23:47:04;100376.56;;;6.71;80.43
12213;BME280;6169;44.158;22.788;2023-01-10T23:52:06;100390.66;;;6.86;79.08
12213;BME280;6169;44.158;22.788;2023-01-10T23:57:10;100401.88;;;7.50;76.78
